createdAt,value
2019-03-31T00:04:39.685Z,52.6
2019-03-31T00:09:45.013Z,53.2
2019-03-31T00:14:50.174Z,53.2
2019-03-31T00:19:54.034Z,53.6
2019-03-31T00:24:59.653Z,54.6
2019-03-31T00:30:04.982Z,54
2019-03-31T00:35:08.890Z,54.6
2019-03-31T00:40:14.232Z,54.3
2019-03-31T00:45:19.963Z,54.5
2019-03-31T00:50:25.170Z,55
2019-03-31T00:55:30.773Z,54.8
2019-03-31T01:00:36.001Z,54.5
2019-03-31T01:05:41.272Z,54.4
2019-03-31T01:10:46.413Z,54.4
2019-03-31T01:15:51.989Z,54.4
2019-03-31T01:20:57.733Z,54.4
2019-03-31T01:26:03.186Z,54.2
2019-03-31T01:31:11.699Z,54
2019-03-31T01:36:17.343Z,54.3
2019-03-31T01:41:22.868Z,54.9
2019-03-31T01:46:28.852Z,55.4
2019-03-31T01:51:34.316Z,56.3
2019-03-31T01:56:39.750Z,56.1
2019-03-31T02:01:45.096Z,56.4
2019-03-31T02:06:50.470Z,56.7
2019-03-31T02:11:55.978Z,56.8
2019-03-31T02:17:01.301Z,56.5
2019-03-31T02:22:09.755Z,56.7
2019-03-31T02:27:15.131Z,57
2019-03-31T02:32:26.977Z,56.9
2019-03-31T02:37:22.624Z,57
2019-03-31T02:42:27.637Z,56.6
2019-03-31T02:47:31.657Z,56.5
2019-03-31T02:52:36.765Z,56.6
2019-03-31T02:57:40.455Z,56.6
2019-03-31T03:02:46.184Z,56.4
2019-03-31T03:07:51.738Z,56.4
2019-03-31T03:12:56.770Z,56.5
2019-03-31T03:18:02.305Z,56.3
2019-03-31T03:23:07.687Z,55.5
2019-03-31T03:28:13.435Z,55.5
2019-03-31T03:33:21.766Z,55.4
2019-03-31T03:38:28.050Z,55.5
2019-03-31T03:43:33.100Z,55.6
2019-03-31T03:48:38.467Z,55.7
2019-03-31T03:53:43.622Z,55.9
2019-03-31T03:58:49.064Z,56.5
2019-03-31T04:03:54.579Z,56.6
2019-03-31T04:09:00.232Z,57.4
2019-03-31T04:14:05.421Z,57
2019-03-31T04:19:10.949Z,56.8
2019-03-31T04:24:16.193Z,57.3
2019-03-31T04:29:21.811Z,57.4
2019-03-31T04:34:27.742Z,57.5
2019-03-31T04:39:33.147Z,58
2019-03-31T04:44:38.784Z,57.8
2019-03-31T04:49:44.491Z,58.2
2019-03-31T04:54:49.995Z,58.1
2019-03-31T04:59:56.620Z,56.9
2019-03-31T05:05:00.458Z,56.8
2019-03-31T05:10:06.101Z,56.7
2019-03-31T05:15:11.564Z,54.9
2019-03-31T05:20:19.405Z,54.9
2019-03-31T05:25:24.815Z,54.1
2019-03-31T05:30:30.164Z,53.4
2019-03-31T05:35:36.312Z,52.5
2019-03-31T05:40:41.996Z,52.1
2019-03-31T05:45:47.293Z,52.3
2019-03-31T05:50:52.503Z,52.4
2019-03-31T05:55:58.022Z,51.9
2019-03-31T06:01:03.307Z,51.1
2019-03-31T06:06:08.468Z,49
2019-03-31T06:11:14.071Z,48.8
2019-03-31T06:16:19.858Z,46.9
2019-03-31T06:21:25.306Z,44.4
2019-03-31T06:26:31.437Z,43.8
2019-03-31T06:31:37.005Z,42.8
2019-03-31T06:36:43.267Z,38
2019-03-31T06:41:49.355Z,38
2019-03-31T06:46:54.555Z,36.7
2019-03-31T06:51:58.696Z,37.4
2019-03-31T06:57:05.008Z,35.7
2019-03-31T07:02:10.611Z,34.6
2019-03-31T07:07:14.184Z,33.1
2019-03-31T07:12:19.388Z,32
2019-03-31T07:17:26.015Z,28.8
2019-03-31T07:22:32.493Z,28.4
2019-03-31T07:27:37.716Z,28.4
2019-03-31T07:32:41.597Z,27.5
2019-03-31T07:37:50.497Z,27
2019-03-31T07:42:56.938Z,27.4
2019-03-31T07:48:08.059Z,27.4
2019-03-31T07:53:03.939Z,25.9
2019-03-31T07:58:09.054Z,24.5
2019-03-31T08:03:14.360Z,24.8
2019-03-31T08:08:19.404Z,23.2
2019-03-31T08:13:24.634Z,22.2
2019-03-31T08:18:30.020Z,21.4
2019-03-31T08:23:35.347Z,21.2
2019-03-31T08:33:44.653Z,20.8
2019-03-31T08:38:50.464Z,20.4
2019-03-31T08:43:55.747Z,20
2019-03-31T08:49:00.795Z,19.3
2019-03-31T08:54:04.775Z,19.1
2019-03-31T08:59:09.984Z,17.6
2019-03-31T09:04:15.157Z,19.2
2019-03-31T09:09:21.752Z,18.9
2019-03-31T09:14:27.180Z,18.8
2019-03-31T09:19:32.198Z,18.1
2019-03-31T09:24:37.582Z,17.9
2019-03-31T09:29:42.577Z,18.3
2019-03-31T09:34:47.984Z,17.9
2019-03-31T09:39:53.361Z,17.8
2019-03-31T09:44:59.117Z,17.3
2019-03-31T09:50:04.213Z,17.7
2019-03-31T09:55:10.647Z,17.6
2019-03-31T10:00:15.692Z,17.6
2019-03-31T10:05:20.907Z,17.7
2019-03-31T10:10:26.124Z,17.1
2019-03-31T10:15:31.382Z,16.8
2019-03-31T10:20:37.110Z,16.2
2019-03-31T10:25:44.623Z,15.6
2019-03-31T10:30:50.141Z,15.6
2019-03-31T10:35:55.388Z,15.5
2019-03-31T10:41:01.314Z,16.8
2019-03-31T10:46:06.485Z,15.6
2019-03-31T10:51:12.081Z,15.6
2019-03-31T10:56:17.431Z,17.9
2019-03-31T11:01:22.552Z,15.5
2019-03-31T11:06:27.567Z,16
2019-03-31T11:11:34.142Z,15.3
2019-03-31T11:16:40.058Z,16
2019-03-31T11:21:45.322Z,16
2019-03-31T11:26:50.752Z,15.2
2019-03-31T11:31:55.897Z,15.8
2019-03-31T11:37:16.085Z,15.5
2019-03-31T11:42:03.948Z,15.6
2019-03-31T11:47:09.076Z,15.5
2019-03-31T11:52:14.172Z,15.5
2019-03-31T11:57:23.311Z,16.6
2019-03-31T12:02:31.864Z,15.9
2019-03-31T12:07:45.559Z,15.5
2019-03-31T12:12:31.280Z,15.5
2019-03-31T12:17:39.343Z,17.3
2019-03-31T12:22:47.184Z,16.4
2019-03-31T12:27:52.335Z,16.4
2019-03-31T12:32:57.453Z,16.7
2019-03-31T12:38:02.844Z,16.6
2019-03-31T12:43:07.971Z,16.9
2019-03-31T12:48:15.712Z,17.3
2019-03-31T12:53:21.062Z,17.3
2019-03-31T12:58:26.272Z,17.9
2019-03-31T13:03:32.328Z,18.9
2019-03-31T13:08:34.503Z,20.7
2019-03-31T13:13:39.460Z,20.7
2019-03-31T13:18:44.800Z,20.7
2019-03-31T13:23:50.479Z,22.8
2019-03-31T13:28:55.857Z,22.5
2019-03-31T13:33:56.166Z,22.8
2019-03-31T13:39:01.357Z,23.4
2019-03-31T13:44:05.811Z,23.6
2019-03-31T13:49:10.968Z,23.8
2019-03-31T13:54:15.984Z,23.5
2019-03-31T13:59:21.813Z,24
2019-03-31T14:04:25.720Z,24
2019-03-31T14:09:32.911Z,25.6
2019-03-31T14:14:43.198Z,25.5
2019-03-31T14:19:48.860Z,24.9
2019-03-31T14:24:53.946Z,25.9
2019-03-31T14:35:01.592Z,25.4
2019-03-31T14:40:09.609Z,26
2019-03-31T14:45:14.691Z,26
2019-03-31T14:50:20.390Z,25.5
2019-03-31T14:55:24.072Z,25.5
2019-03-31T15:00:32.112Z,26
2019-03-31T15:05:39.258Z,25.5
2019-03-31T15:10:45.698Z,27.5
2019-03-31T15:15:49.306Z,27.2
2019-03-31T15:20:54.574Z,25.6
2019-03-31T15:26:00.390Z,25.4
2019-03-31T15:31:06.669Z,25.1
2019-03-31T15:36:10.422Z,25.1
2019-03-31T15:41:23.882Z,25.8
2019-03-31T15:46:24.449Z,26.3
2019-03-31T15:51:30.107Z,25.2
2019-03-31T15:56:37.497Z,25
2019-03-31T16:01:43.136Z,26.2
2019-03-31T16:06:48.376Z,25
2019-03-31T16:11:56.757Z,26.2
2019-03-31T16:17:01.989Z,25.5
2019-03-31T16:22:09.142Z,26.7
2019-03-31T16:27:14.396Z,25.9
2019-03-31T16:32:14.880Z,26.5
2019-03-31T16:37:22.163Z,29.7
2019-03-31T16:42:27.439Z,29
2019-03-31T16:47:30.956Z,30.2
2019-03-31T16:52:36.455Z,30
2019-03-31T16:57:41.653Z,29.3
2019-03-31T17:02:47.048Z,29.7
2019-03-31T17:07:52.342Z,30
2019-03-31T17:10:57.925Z,31.7
2019-03-31T17:16:03.086Z,51.4
2019-03-31T17:21:07.152Z,31.3
2019-03-31T17:26:12.421Z,32.5
2019-03-31T17:31:15.944Z,31.6
2019-03-31T17:36:21.556Z,33.1
2019-03-31T17:41:27.195Z,33.7
2019-03-31T17:46:32.390Z,33.5
2019-03-31T17:51:38.391Z,34
2019-03-31T17:56:43.649Z,34.4
2019-03-31T18:01:48.781Z,33.9
2019-03-31T18:06:54.331Z,34.7
2019-03-31T18:11:59.542Z,34.4
2019-03-31T18:17:04.640Z,34.9
2019-03-31T18:22:19.487Z,35.9
2019-03-31T18:27:14.841Z,35.8
2019-03-31T18:32:20.033Z,35.7
2019-03-31T18:37:25.265Z,35.6
2019-03-31T18:42:30.472Z,35.8
2019-03-31T18:47:36.300Z,36
2019-03-31T18:52:41.664Z,36.5
2019-03-31T18:57:46.728Z,37.2
2019-03-31T19:02:50.329Z,37.5
2019-03-31T19:07:55.421Z,37.8
2019-03-31T19:13:00.496Z,38.9
2019-03-31T19:18:06.654Z,38.8
2019-03-31T19:23:13.853Z,38.8
2019-03-31T19:28:19.003Z,39.4
2019-03-31T19:33:25.454Z,39.9
2019-03-31T19:38:30.719Z,39.9
2019-03-31T19:43:34.484Z,40.3
2019-03-31T19:48:38.616Z,41
2019-03-31T19:53:43.996Z,41.3
2019-03-31T19:58:49.354Z,41.3
2019-03-31T20:03:54.520Z,41.8
2019-03-31T20:08:59.592Z,41.8
2019-03-31T20:14:04.592Z,41.7
2019-03-31T20:19:08.209Z,41.8
2019-03-31T20:24:13.553Z,42.1
2019-03-31T20:29:21.424Z,42
2019-03-31T20:34:28.724Z,42
2019-03-31T20:39:34.090Z,42.2
2019-03-31T20:44:39.211Z,42.4
2019-03-31T20:49:44.414Z,42.6
2019-03-31T20:54:49.710Z,42.8
2019-03-31T20:59:54.815Z,42.8
2019-03-31T21:04:54.906Z,43
2019-03-31T21:10:00.514Z,43.3
2019-03-31T21:15:08.811Z,43.2
2019-03-31T21:20:14.077Z,43.4
2019-03-31T21:25:17.882Z,43.2
2019-03-31T21:30:23.242Z,43.3
2019-03-31T21:35:28.432Z,43.4
2019-03-31T21:40:33.629Z,44.2
2019-03-31T21:45:39.056Z,43.6
2019-03-31T21:50:44.485Z,43.8
2019-03-31T21:55:49.495Z,43.9
2019-03-31T22:00:54.817Z,44.4
2019-03-31T22:05:58.425Z,44.8
2019-03-31T22:11:03.542Z,45.2
2019-03-31T22:16:07.826Z,45.7
2019-03-31T22:21:13.322Z,45.6
2019-03-31T22:26:22.086Z,45.2
2019-03-31T22:31:27.285Z,45.3
2019-03-31T22:36:32.350Z,46.1
2019-03-31T22:41:36.258Z,46.6
2019-03-31T22:46:56.565Z,46.8
2019-03-31T22:51:41.595Z,46.9
2019-03-31T22:56:46.714Z,47.1
2019-03-31T23:01:51.728Z,47.3
2019-03-31T23:06:56.962Z,47.6
2019-03-31T23:12:02.060Z,47.9
2019-03-31T23:17:07.562Z,48.8
2019-03-31T23:22:13.993Z,48.8
2019-03-31T23:27:19.955Z,49.5
2019-03-31T23:32:25.161Z,49.7
2019-03-31T23:37:30.369Z,49.8
2019-03-31T23:42:36.034Z,50.3
2019-03-31T23:47:41.252Z,50.3
2019-03-31T23:52:46.812Z,50.5
2019-03-31T23:57:51.867Z,51
